PWSweather.com
Personal Weather Stations
Station Observations
KMAMEDFI2
Medfield, MA 02052

Medfield, MA 02052

Lat: 42.1900822, Lon: -71.3296889

Elevation: 138

Station Type: Rainwise WS MK-III

http://www.medfieldweather.com

High Low Average
Temperature 52.8°F11.6°C 29.5°F-1.4°C 41.8°F5.4°C
Dew Point 48.8°F9.3°C 28.0°F-2.2°C 40.4°F4.7°C
Winds 8.1 mph 13.0 kmh Calm Calm 1.0 mph SW1.6 kmh SW
Wind Gusts 12.7 mph20.4 kmh -- 2.0 mph3.2 kmh
Humidity 97% 80% 95%
Pressure 30.02 in1016.6 mb 29.62 in1003.0 mb -
Precipitation 0.32 in8.1 mm - -
Hour Temp Dew Point Humidity Winds Wind Gusts Pressure Precip Precip Rate Daily Precip Total
12:00 AM 29.5°F-1.4°C 28.0°F-2.2°C 94% Calm Calm -- 30.01 in1016.3 mb - 0.00 in0.0 mm 0.00 in0.0 mm
12:10 AM 29.8°F-1.2°C 28.3°F-2.1°C 94% Calm Calm -- 30.01 in1016.3 mb - 0.00 in0.0 mm 0.00 in0.0 mm
12:20 AM 30.2°F-1.0°C 28.7°F-1.8°C 94% Calm Calm -- 30.01 in1016.3 mb - 0.00 in0.0 mm 0.00 in0.0 mm
12:30 AM 30.7°F-0.7°C 29.2°F-1.6°C 94% Calm Calm -- 30.02 in1016.6 mb - 0.00 in0.0 mm 0.00 in0.0 mm
12:40 AM 30.9°F-0.6°C 29.4°F-1.4°C 94% Calm Calm 1.2 mph1.9 kmh 30.01 in1016.3 mb - 0.00 in0.0 mm 0.00 in0.0 mm
12:50 AM 31.1°F-0.5°C 29.8°F-1.2°C 95% Calm Calm -- 30.01 in1016.3 mb - 0.00 in0.0 mm 0.00 in0.0 mm
01:00 AM 31.2°F-0.4°C 29.9°F-1.2°C 95% Calm Calm -- 30.00 in1015.9 mb - 0.00 in0.0 mm 0.00 in0.0 mm
01:10 AM 31.3°F-0.4°C 30.0°F-1.1°C 95% Calm Calm -- 30.00 in1015.9 mb - 0.00 in0.0 mm 0.00 in0.0 mm
01:20 AM 31.3°F-0.4°C 30.0°F-1.1°C 95% Calm Calm -- 29.99 in1015.6 mb - 0.00 in0.0 mm 0.00 in0.0 mm
01:30 AM 31.4°F-0.3°C 30.1°F-1.1°C 95% Calm Calm -- 29.99 in1015.6 mb - 0.00 in0.0 mm 0.00 in0.0 mm
01:50 AM 31.4°F-0.3°C 30.1°F-1.1°C 95% Calm Calm -- 29.99 in1015.6 mb - 0.00 in0.0 mm 0.00 in0.0 mm
02:00 AM 31.4°F-0.3°C 30.1°F-1.1°C 95% Calm Calm -- 29.99 in1015.6 mb - 0.00 in0.0 mm 0.00 in0.0 mm
02:10 AM 31.4°F-0.3°C 30.1°F-1.1°C 95% Calm Calm -- 29.98 in1015.2 mb - 0.00 in0.0 mm 0.00 in0.0 mm
02:20 AM 31.5°F-0.3°C 30.2°F-1.0°C 95% Calm Calm -- 29.97 in1014.9 mb - 0.00 in0.0 mm 0.00 in0.0 mm
02:30 AM 31.6°F-0.2°C 30.3°F-0.9°C 95% Calm Calm -- 29.96 in1014.6 mb - 0.00 in0.0 mm 0.00 in0.0 mm
02:40 AM 31.9°F-0.1°C 30.6°F-0.8°C 95% Calm Calm -- 29.95 in1014.2 mb - 0.00 in0.0 mm 0.00 in0.0 mm
02:50 AM 31.9°F-0.1°C 30.6°F-0.8°C 95% Calm Calm -- 29.95 in1014.2 mb - 0.00 in0.0 mm 0.00 in0.0 mm
03:00 AM 32.1°F0.1°C 30.8°F-0.7°C 95% Calm Calm -- 29.94 in1013.9 mb - 0.00 in0.0 mm 0.00 in0.0 mm
03:10 AM 32.5°F0.3°C 31.2°F-0.4°C 95% Calm Calm -- 29.94 in1013.9 mb - 0.00 in0.0 mm 0.00 in0.0 mm
03:20 AM 32.9°F0.5°C 31.6°F-0.2°C 95% Calm Calm -- 29.94 in1013.9 mb - 0.00 in0.0 mm 0.00 in0.0 mm
03:30 AM 33.0°F0.6°C 31.7°F-0.2°C 95% Calm Calm -- 29.94 in1013.9 mb - 0.00 in0.0 mm 0.00 in0.0 mm
03:40 AM 32.9°F0.5°C 31.6°F-0.2°C 95% Calm Calm -- 29.93 in1013.5 mb - 0.00 in0.0 mm 0.00 in0.0 mm
03:50 AM 33.1°F0.6°C 31.8°F-0.1°C 95% Calm Calm -- 29.94 in1013.9 mb - 0.00 in0.0 mm 0.00 in0.0 mm
04:00 AM 33.5°F0.8°C 32.2°F0.1°C 95% Calm Calm -- 29.93 in1013.5 mb - 0.00 in0.0 mm 0.00 in0.0 mm
04:10 AM 33.6°F0.9°C 32.3°F0.2°C 95% Calm Calm -- 29.93 in1013.5 mb - 0.00 in0.0 mm 0.00 in0.0 mm
04:20 AM 33.6°F0.9°C 32.3°F0.2°C 95% Calm Calm -- 29.93 in1013.5 mb - 0.00 in0.0 mm 0.00 in0.0 mm
04:30 AM 33.8°F1.0°C 32.5°F0.3°C 95% Calm Calm -- 29.92 in1013.2 mb - 0.00 in0.0 mm 0.00 in0.0 mm
04:40 AM 33.9°F1.1°C 32.6°F0.3°C 95% Calm Calm -- 29.92 in1013.2 mb - 0.00 in0.0 mm 0.00 in0.0 mm
04:50 AM 34.9°F1.6°C 33.6°F0.9°C 95% Calm Calm -- 29.91 in1012.9 mb - 0.00 in0.0 mm 0.00 in0.0 mm
05:00 AM 36.1°F2.3°C 34.8°F1.6°C 95% 1.2 mph ESE1.9 kmh ESE 2.3 mph3.7 kmh 29.91 in1012.9 mb - 0.00 in0.0 mm 0.00 in0.0 mm
05:10 AM 37.0°F2.8°C 35.7°F2.1°C 95% 2.3 mph ESE3.7 kmh ESE 2.3 mph3.7 kmh 29.91 in1012.9 mb - 0.00 in0.0 mm 0.00 in0.0 mm
05:20 AM 38.2°F3.4°C 37.1°F2.8°C 96% 2.3 mph E3.7 kmh E 2.3 mph3.7 kmh 29.90 in1012.5 mb - 0.00 in0.0 mm 0.00 in0.0 mm
05:30 AM 39.2°F4.0°C 38.1°F3.4°C 96% 2.3 mph ESE3.7 kmh ESE 2.3 mph3.7 kmh 29.90 in1012.5 mb - 0.00 in0.0 mm 0.00 in0.0 mm
05:40 AM 39.7°F4.3°C 38.7°F3.7°C 96% Calm Calm 2.3 mph3.7 kmh 29.89 in1012.2 mb - 0.00 in0.0 mm 0.00 in0.0 mm
05:50 AM 40.2°F4.6°C 39.2°F4.0°C 96% 2.3 mph E3.7 kmh E 2.3 mph3.7 kmh 29.89 in1012.2 mb - 0.00 in0.0 mm 0.00 in0.0 mm
06:00 AM 40.8°F4.9°C 39.7°F4.3°C 96% Calm Calm 1.2 mph1.9 kmh 29.90 in1012.5 mb - 0.00 in0.0 mm 0.00 in0.0 mm
06:10 AM 40.9°F4.9°C 39.8°F4.3°C 96% 2.3 mph E3.7 kmh E 2.3 mph3.7 kmh 29.89 in1012.2 mb - 0.00 in0.0 mm 0.00 in0.0 mm
06:20 AM 41.3°F5.2°C 40.2°F4.6°C 96% 2.3 mph ESE3.7 kmh ESE 2.3 mph3.7 kmh 29.88 in1011.9 mb - 0.00 in0.0 mm 0.00 in0.0 mm
06:30 AM 41.6°F5.3°C 40.5°F4.7°C 96% 2.3 mph ESE3.7 kmh ESE 5.8 mph9.3 kmh 29.88 in1011.9 mb - 0.00 in0.0 mm 0.00 in0.0 mm
06:40 AM 41.4°F5.2°C 40.3°F4.6°C 96% 3.5 mph SE5.6 kmh SE 2.3 mph3.7 kmh 29.88 in1011.9 mb - 0.00 in0.0 mm 0.00 in0.0 mm
06:50 AM 41.5°F5.3°C 40.4°F4.7°C 96% 1.2 mph ESE1.9 kmh ESE 2.3 mph3.7 kmh 29.87 in1011.5 mb - 0.00 in0.0 mm 0.00 in0.0 mm
07:00 AM 41.8°F5.4°C 40.7°F4.8°C 96% 2.3 mph SE3.7 kmh SE 2.3 mph3.7 kmh 29.86 in1011.2 mb - 0.00 in0.0 mm 0.00 in0.0 mm
07:10 AM 42.1°F5.6°C 41.0°F5.0°C 96% 3.5 mph E5.6 kmh E 2.3 mph3.7 kmh 29.84 in1010.5 mb - 0.00 in0.0 mm 0.00 in0.0 mm
07:20 AM 42.3°F5.7°C 41.2°F5.1°C 96% 1.2 mph SSE1.9 kmh SSE 2.3 mph3.7 kmh 29.87 in1011.5 mb - 0.00 in0.0 mm 0.00 in0.0 mm
07:30 AM 42.4°F5.8°C 41.3°F5.2°C 96% 1.2 mph SSW1.9 kmh SSW 2.3 mph3.7 kmh 29.87 in1011.5 mb - 0.00 in0.0 mm 0.00 in0.0 mm
07:40 AM 42.5°F5.8°C 41.4°F5.2°C 96% 2.3 mph ESE3.7 kmh ESE 2.3 mph3.7 kmh 29.86 in1011.2 mb - 0.00 in0.0 mm 0.00 in0.0 mm
07:50 AM 42.5°F5.8°C 41.4°F5.2°C 96% 3.5 mph SE5.6 kmh SE 5.8 mph9.3 kmh 29.85 in1010.8 mb - 0.00 in0.0 mm 0.00 in0.0 mm
08:00 AM 42.5°F5.8°C 41.4°F5.2°C 96% Calm Calm 2.3 mph3.7 kmh 29.86 in1011.2 mb - 0.00 in0.0 mm 0.00 in0.0 mm
08:10 AM 42.5°F5.8°C 41.4°F5.2°C 96% 1.2 mph S1.9 kmh S 2.3 mph3.7 kmh 29.86 in1011.2 mb - 0.00 in0.0 mm 0.00 in0.0 mm
08:20 AM 42.4°F5.8°C 41.3°F5.2°C 96% 2.3 mph SE3.7 kmh SE 5.8 mph9.3 kmh 29.85 in1010.8 mb - 0.00 in0.0 mm 0.00 in0.0 mm
08:30 AM 42.5°F5.8°C 41.4°F5.2°C 96% 2.3 mph SE3.7 kmh SE 2.3 mph3.7 kmh 29.85 in1010.8 mb - 0.00 in0.0 mm 0.00 in0.0 mm
08:40 AM 42.7°F5.9°C 41.6°F5.3°C 96% 1.2 mph SSE1.9 kmh SSE 2.3 mph3.7 kmh 29.84 in1010.5 mb - 0.00 in0.0 mm 0.00 in0.0 mm
08:50 AM 42.9°F6.1°C 41.8°F5.4°C 96% 2.3 mph ESE3.7 kmh ESE 2.3 mph3.7 kmh 29.84 in1010.5 mb - 0.00 in0.0 mm 0.00 in0.0 mm
09:00 AM 43.4°F6.3°C 42.3°F5.7°C 96% 2.3 mph E3.7 kmh E 1.2 mph1.9 kmh 29.84 in1010.5 mb - 0.00 in0.0 mm 0.00 in0.0 mm
09:10 AM 43.9°F6.6°C 42.8°F6.0°C 96% 1.2 mph SE1.9 kmh SE 3.5 mph5.6 kmh 29.83 in1010.2 mb - 0.00 in0.0 mm 0.00 in0.0 mm
09:20 AM 44.5°F6.9°C 43.4°F6.3°C 96% 4.6 mph SE7.4 kmh SE 8.1 mph13.0 kmh 29.83 in1010.2 mb - 0.00 in0.0 mm 0.00 in0.0 mm
09:30 AM 44.9°F7.2°C 43.8°F6.6°C 96% 2.3 mph E3.7 kmh E 3.5 mph5.6 kmh 29.82 in1009.8 mb - 0.00 in0.0 mm 0.00 in0.0 mm
09:40 AM 45.8°F7.7°C 45.0°F7.2°C 97% 2.3 mph ESE3.7 kmh ESE 2.3 mph3.7 kmh 29.82 in1009.8 mb - 0.00 in0.0 mm 0.00 in0.0 mm
09:50 AM 46.9°F8.3°C 45.8°F7.7°C 96% 1.2 mph W1.9 kmh W 2.3 mph3.7 kmh 29.82 in1009.8 mb - 0.00 in0.0 mm 0.00 in0.0 mm
10:00 AM 47.9°F8.8°C 45.9°F7.7°C 93% 2.3 mph SSE3.7 kmh SSE 5.8 mph9.3 kmh 29.81 in1009.5 mb - 0.00 in0.0 mm 0.00 in0.0 mm
10:10 AM 49.1°F9.5°C 46.6°F8.1°C 91% 2.3 mph ESE3.7 kmh ESE 3.5 mph5.6 kmh 29.80 in1009.1 mb - 0.00 in0.0 mm 0.00 in0.0 mm
10:20 AM 51.2°F10.7°C 46.2°F7.9°C 83% 8.1 mph SSW13.0 kmh SSW 12.7 mph20.4 kmh 29.80 in1009.1 mb - 0.00 in0.0 mm 0.00 in0.0 mm
10:30 AM 51.4°F10.8°C 46.4°F8.0°C 83% 3.5 mph E5.6 kmh E 5.8 mph9.3 kmh 29.80 in1009.1 mb - 0.00 in0.0 mm 0.00 in0.0 mm
10:40 AM 51.8°F11.0°C 46.4°F8.0°C 82% 5.8 mph ESE9.3 kmh ESE 8.1 mph13.0 kmh 29.79 in1008.8 mb - 0.00 in0.0 mm 0.00 in0.0 mm
10:50 AM 52.5°F11.4°C 46.8°F8.2°C 81% 6.9 mph SE11.1 kmh SE 11.5 mph18.5 kmh 29.78 in1008.5 mb - 0.00 in0.0 mm 0.00 in0.0 mm
11:00 AM 52.2°F11.2°C 46.5°F8.1°C 81% 3.5 mph SE5.6 kmh SE 8.1 mph13.0 kmh 29.78 in1008.5 mb - 0.00 in0.0 mm 0.00 in0.0 mm
11:10 AM 52.3°F11.3°C 46.6°F8.1°C 81% 3.5 mph S5.6 kmh S 5.8 mph9.3 kmh 29.76 in1007.8 mb - 0.00 in0.0 mm 0.00 in0.0 mm
11:20 AM 52.7°F11.5°C 47.6°F8.7°C 83% 3.5 mph ESE5.6 kmh ESE 6.9 mph11.1 kmh 29.75 in1007.5 mb - 0.00 in0.0 mm 0.00 in0.0 mm
11:30 AM 52.8°F11.6°C 46.8°F8.2°C 80% 5.8 mph SE9.3 kmh SE 10.4 mph16.7 kmh 29.74 in1007.1 mb - 0.00 in0.0 mm 0.00 in0.0 mm
11:40 AM 52.4°F11.3°C 47.3°F8.5°C 83% 4.6 mph ESE7.4 kmh ESE 5.8 mph9.3 kmh 29.73 in1006.8 mb - 0.00 in0.0 mm 0.00 in0.0 mm
11:50 AM 51.9°F11.1°C 46.9°F8.3°C 83% 3.5 mph SE5.6 kmh SE 5.8 mph9.3 kmh 29.72 in1006.4 mb - 0.00 in0.0 mm 0.00 in0.0 mm
12:00 PM 51.5°F10.8°C 47.4°F8.6°C 86% 1.2 mph SE1.9 kmh SE 2.3 mph3.7 kmh 29.71 in1006.1 mb - 0.00 in0.0 mm 0.00 in0.0 mm
12:10 PM 51.0°F10.6°C 47.9°F8.8°C 89% 5.8 mph SE9.3 kmh SE 8.1 mph13.0 kmh 29.70 in1005.8 mb - 0.00 in0.0 mm 0.00 in0.0 mm
12:20 PM 50.5°F10.3°C 48.5°F9.2°C 93% 3.5 mph E5.6 kmh E 5.8 mph9.3 kmh 29.70 in1005.8 mb - 0.00 in0.0 mm 0.00 in0.0 mm
12:30 PM 49.7°F9.8°C 48.8°F9.3°C 97% 2.3 mph E3.7 kmh E 2.3 mph3.7 kmh 29.70 in1005.8 mb - 0.01 in0.3 mm 0.01 in0.3 mm
12:40 PM 49.1°F9.5°C 48.3°F9.1°C 97% 2.3 mph W3.7 kmh W 6.9 mph11.1 kmh 29.72 in1006.4 mb - 0.04 in1.0 mm 0.05 in1.3 mm
12:50 PM 48.8°F9.3°C 48.0°F8.9°C 97% Calm Calm -- 29.70 in1005.8 mb - 0.03 in0.8 mm 0.08 in2.0 mm
01:00 PM 49.2°F9.6°C 48.4°F9.1°C 97% Calm Calm -- 29.69 in1005.4 mb - 0.00 in0.0 mm 0.08 in2.0 mm
01:10 PM 49.2°F9.6°C 48.4°F9.1°C 97% Calm Calm -- 29.69 in1005.4 mb - 0.00 in0.0 mm 0.08 in2.0 mm
01:20 PM 49.2°F9.6°C 48.3°F9.1°C 97% Calm Calm -- 29.69 in1005.4 mb - 0.01 in0.3 mm 0.09 in2.3 mm
01:30 PM 49.2°F9.6°C 48.4°F9.1°C 97% Calm Calm -- 29.67 in1004.7 mb - 0.01 in0.3 mm 0.10 in2.5 mm
01:40 PM 49.1°F9.5°C 48.3°F9.1°C 97% Calm Calm -- 29.68 in1005.1 mb - 0.01 in0.3 mm 0.11 in2.8 mm
01:50 PM 49.0°F9.4°C 48.2°F9.0°C 97% Calm Calm -- 29.68 in1005.1 mb - 0.02 in0.5 mm 0.13 in3.3 mm
02:00 PM 48.9°F9.4°C 48.1°F8.9°C 97% Calm Calm -- 29.67 in1004.7 mb - 0.03 in0.8 mm 0.16 in4.1 mm
02:10 PM 49.0°F9.4°C 48.1°F8.9°C 97% Calm Calm -- 29.66 in1004.4 mb - 0.01 in0.3 mm 0.17 in4.3 mm
02:20 PM 49.0°F9.4°C 48.1°F8.9°C 97% 2.3 mph WSW3.7 kmh WSW 2.3 mph3.7 kmh 29.66 in1004.4 mb - 0.01 in0.3 mm 0.18 in4.6 mm
02:30 PM 48.7°F9.3°C 47.9°F8.8°C 97% 2.3 mph NW3.7 kmh NW 2.3 mph3.7 kmh 29.65 in1004.1 mb - 0.01 in0.3 mm 0.19 in4.8 mm
02:40 PM 48.2°F9.0°C 47.4°F8.6°C 97% Calm Calm -- 29.65 in1004.1 mb - 0.01 in0.3 mm 0.20 in5.1 mm
02:50 PM 47.9°F8.8°C 47.1°F8.4°C 97% Calm Calm -- 29.66 in1004.4 mb - 0.02 in0.5 mm 0.22 in5.6 mm
03:00 PM 47.9°F8.8°C 47.1°F8.4°C 97% Calm Calm -- 29.65 in1004.1 mb - 0.02 in0.5 mm 0.24 in6.1 mm
03:10 PM 48.2°F9.0°C 47.4°F8.6°C 97% Calm Calm -- 29.64 in1003.7 mb - 0.00 in0.0 mm 0.24 in6.1 mm
03:20 PM 48.3°F9.1°C 47.5°F8.6°C 97% Calm Calm -- 29.64 in1003.7 mb - 0.00 in0.0 mm 0.24 in6.1 mm
03:30 PM 48.2°F9.0°C 47.4°F8.6°C 97% Calm Calm -- 29.64 in1003.7 mb - 0.00 in0.0 mm 0.24 in6.1 mm
03:40 PM 48.2°F9.0°C 47.4°F8.6°C 97% Calm Calm -- 29.64 in1003.7 mb - 0.00 in0.0 mm 0.24 in6.1 mm
03:50 PM 47.7°F8.7°C 46.9°F8.3°C 97% Calm Calm -- 29.64 in1003.7 mb - 0.00 in0.0 mm 0.24 in6.1 mm
04:00 PM 47.7°F8.7°C 46.9°F8.3°C 97% Calm Calm -- 29.64 in1003.7 mb - 0.00 in0.0 mm 0.24 in6.1 mm
04:10 PM 47.3°F8.5°C 46.5°F8.1°C 97% Calm Calm 2.3 mph3.7 kmh 29.64 in1003.7 mb - 0.00 in0.0 mm 0.24 in6.1 mm
04:20 PM 46.6°F8.1°C 45.8°F7.7°C 97% Calm Calm -- 29.63 in1003.4 mb - 0.00 in0.0 mm 0.24 in6.1 mm
04:30 PM 45.4°F7.4°C 44.6°F7.0°C 97% Calm Calm -- 29.62 in1003.0 mb - 0.00 in0.0 mm 0.24 in6.1 mm
04:40 PM 44.9°F7.2°C 43.8°F6.6°C 96% Calm Calm -- 29.62 in1003.0 mb - 0.00 in0.0 mm 0.24 in6.1 mm
04:50 PM 44.2°F6.8°C 43.1°F6.2°C 96% Calm Calm 2.3 mph3.7 kmh 29.63 in1003.4 mb - 0.00 in0.0 mm 0.24 in6.1 mm
05:00 PM 43.9°F6.6°C 42.8°F6.0°C 96% Calm Calm -- 29.63 in1003.4 mb - 0.00 in0.0 mm 0.24 in6.1 mm
05:10 PM 43.7°F6.5°C 42.6°F5.9°C 96% Calm Calm -- 29.63 in1003.4 mb - 0.01 in0.3 mm 0.25 in6.4 mm
05:20 PM 44.1°F6.7°C 43.1°F6.2°C 96% 1.2 mph NW1.9 kmh NW 2.3 mph3.7 kmh 29.63 in1003.4 mb - 0.01 in0.3 mm 0.25 in6.4 mm
05:30 PM 45.2°F7.3°C 44.4°F6.9°C 97% 1.2 mph NW1.9 kmh NW 2.3 mph3.7 kmh 29.64 in1003.7 mb - 0.00 in0.0 mm 0.25 in6.4 mm
05:40 PM 45.6°F7.6°C 44.8°F7.1°C 97% Calm Calm 2.3 mph3.7 kmh 29.64 in1003.7 mb - 0.00 in0.0 mm 0.25 in6.4 mm
05:50 PM 44.4°F6.9°C 43.3°F6.3°C 96% 3.5 mph WSW5.6 kmh WSW 5.8 mph9.3 kmh 29.66 in1004.4 mb - 0.05 in1.3 mm 0.30 in7.6 mm
06:00 PM 43.4°F6.3°C 42.3°F5.7°C 96% 2.3 mph WNW3.7 kmh WNW 2.3 mph3.7 kmh 29.65 in1004.1 mb - 0.01 in0.3 mm 0.31 in7.9 mm
06:10 PM 42.9°F6.1°C 41.8°F5.4°C 96% 1.2 mph SW1.9 kmh SW 1.2 mph1.9 kmh 29.66 in1004.4 mb - 0.00 in0.0 mm 0.31 in7.9 mm
06:20 PM 42.6°F5.9°C 41.5°F5.3°C 96% Calm Calm -- 29.66 in1004.4 mb - 0.00 in0.0 mm 0.31 in7.9 mm
06:30 PM 42.1°F5.6°C 41.0°F5.0°C 96% Calm Calm -- 29.65 in1004.1 mb - 0.00 in0.0 mm 0.31 in7.9 mm
06:40 PM 41.7°F5.4°C 40.6°F4.8°C 96% Calm Calm -- 29.65 in1004.1 mb - 0.00 in0.0 mm 0.31 in7.9 mm
06:50 PM 41.3°F5.2°C 40.3°F4.6°C 96% Calm Calm 2.3 mph3.7 kmh 29.65 in1004.1 mb - 0.00 in0.0 mm 0.31 in7.9 mm
07:00 PM 41.7°F5.4°C 40.6°F4.8°C 96% 2.3 mph NW3.7 kmh NW 2.3 mph3.7 kmh 29.65 in1004.1 mb - 0.00 in0.0 mm 0.31 in7.9 mm
07:10 PM 41.9°F5.5°C 40.8°F4.9°C 96% Calm Calm -- 29.65 in1004.1 mb - 0.00 in0.0 mm 0.31 in7.9 mm
07:20 PM 42.1°F5.6°C 41.0°F5.0°C 96% 2.3 mph SW3.7 kmh SW 2.3 mph3.7 kmh 29.65 in1004.1 mb - 0.00 in0.0 mm 0.31 in7.9 mm
07:30 PM 42.3°F5.7°C 41.2°F5.1°C 96% 1.2 mph WSW1.9 kmh WSW 2.3 mph3.7 kmh 29.65 in1004.1 mb - 0.00 in0.0 mm 0.31 in7.9 mm
07:40 PM 42.4°F5.8°C 41.3°F5.2°C 96% 2.3 mph SW3.7 kmh SW 2.3 mph3.7 kmh 29.65 in1004.1 mb - 0.00 in0.0 mm 0.31 in7.9 mm
07:50 PM 42.6°F5.9°C 41.5°F5.3°C 96% 2.3 mph WSW3.7 kmh WSW 6.9 mph11.1 kmh 29.65 in1004.1 mb - 0.00 in0.0 mm 0.31 in7.9 mm
08:00 PM 42.8°F6.0°C 41.7°F5.4°C 96% 1.2 mph WSW1.9 kmh WSW 5.8 mph9.3 kmh 29.65 in1004.1 mb - 0.00 in0.0 mm 0.31 in7.9 mm
08:10 PM 42.7°F5.9°C 41.6°F5.3°C 96% 2.3 mph SW3.7 kmh SW 2.3 mph3.7 kmh 29.66 in1004.4 mb - 0.00 in0.0 mm 0.31 in7.9 mm
08:20 PM 42.2°F5.7°C 41.1°F5.1°C 96% 2.3 mph WSW3.7 kmh WSW 5.8 mph9.3 kmh 29.65 in1004.1 mb - 0.00 in0.0 mm 0.31 in7.9 mm
08:30 PM 41.9°F5.5°C 40.8°F4.9°C 96% 1.2 mph WSW1.9 kmh WSW -- 29.65 in1004.1 mb - 0.00 in0.0 mm 0.31 in7.9 mm
08:40 PM 41.6°F5.3°C 40.5°F4.7°C 96% Calm Calm 2.3 mph3.7 kmh 29.66 in1004.4 mb - 0.00 in0.0 mm 0.31 in7.9 mm
08:50 PM 41.3°F5.2°C 40.2°F4.6°C 96% Calm Calm 2.3 mph3.7 kmh 29.66 in1004.4 mb - 0.00 in0.0 mm 0.31 in7.9 mm
09:00 PM 40.7°F4.8°C 39.6°F4.2°C 96% 1.2 mph WSW1.9 kmh WSW 2.3 mph3.7 kmh 29.66 in1004.4 mb - 0.01 in0.3 mm 0.32 in8.1 mm
09:10 PM 40.2°F4.6°C 39.1°F3.9°C 96% 2.3 mph W3.7 kmh W 2.3 mph3.7 kmh 29.65 in1004.1 mb - 0.00 in0.0 mm 0.32 in8.1 mm
09:20 PM 39.5°F4.2°C 38.5°F3.6°C 96% Calm Calm -- 29.65 in1004.1 mb - 0.00 in0.0 mm 0.32 in8.1 mm
09:30 PM 38.9°F3.8°C 37.9°F3.3°C 96% 1.2 mph WSW1.9 kmh WSW 2.3 mph3.7 kmh 29.65 in1004.1 mb - 0.00 in0.0 mm 0.32 in8.1 mm
09:40 PM 38.5°F3.6°C 37.5°F3.1°C 96% Calm Calm -- 29.64 in1003.7 mb - 0.00 in0.0 mm 0.32 in8.1 mm
09:50 PM 38.1°F3.4°C 37.1°F2.8°C 96% 2.3 mph W3.7 kmh W 2.3 mph3.7 kmh 29.65 in1004.1 mb - 0.00 in0.0 mm 0.32 in8.1 mm
10:00 PM 38.1°F3.4°C 37.1°F2.8°C 96% 2.3 mph WSW3.7 kmh WSW 2.3 mph3.7 kmh 29.64 in1003.7 mb - 0.00 in0.0 mm 0.32 in8.1 mm
10:10 PM 38.2°F3.4°C 37.2°F2.9°C 96% 2.3 mph WSW3.7 kmh WSW 2.3 mph3.7 kmh 29.64 in1003.7 mb - 0.00 in0.0 mm 0.32 in8.1 mm
10:20 PM 38.3°F3.5°C 37.3°F2.9°C 96% 2.3 mph SW3.7 kmh SW 2.3 mph3.7 kmh 29.64 in1003.7 mb - 0.00 in0.0 mm 0.32 in8.1 mm
10:30 PM 38.1°F3.4°C 37.1°F2.8°C 96% 3.5 mph W5.6 kmh W 5.8 mph9.3 kmh 29.63 in1003.4 mb - 0.00 in0.0 mm 0.32 in8.1 mm
10:40 PM 38.3°F3.5°C 37.3°F2.9°C 96% 1.2 mph NW1.9 kmh NW 2.3 mph3.7 kmh 29.62 in1003.0 mb - 0.00 in0.0 mm 0.32 in8.1 mm
10:50 PM 38.5°F3.6°C 37.5°F3.1°C 96% 3.5 mph WSW5.6 kmh WSW 8.1 mph13.0 kmh 29.62 in1003.0 mb - 0.00 in0.0 mm 0.32 in8.1 mm
11:00 PM 38.6°F3.7°C 37.6°F3.1°C 96% 1.2 mph WSW1.9 kmh WSW 2.3 mph3.7 kmh 29.62 in1003.0 mb - 0.00 in0.0 mm 0.32 in8.1 mm
11:10 PM 38.4°F3.6°C 37.3°F2.9°C 96% 2.3 mph W3.7 kmh W 2.3 mph3.7 kmh 29.62 in1003.0 mb - 0.00 in0.0 mm 0.32 in8.1 mm
11:20 PM 38.7°F3.7°C 37.6°F3.1°C 96% 2.3 mph W3.7 kmh W 5.8 mph9.3 kmh 29.62 in1003.0 mb - 0.00 in0.0 mm 0.32 in8.1 mm
11:30 PM 38.7°F3.7°C 37.7°F3.2°C 96% 2.3 mph W3.7 kmh W 2.3 mph3.7 kmh 29.62 in1003.0 mb - 0.00 in0.0 mm 0.32 in8.1 mm
11:40 PM 38.6°F3.7°C 37.6°F3.1°C 96% 2.3 mph WSW3.7 kmh WSW 5.8 mph9.3 kmh 29.62 in1003.0 mb - 0.00 in0.0 mm 0.32 in8.1 mm
11:50 PM 38.8°F3.8°C 37.8°F3.2°C 96% 2.3 mph SW3.7 kmh SW 2.3 mph3.7 kmh 29.62 in1003.0 mb - 0.00 in0.0 mm 0.32 in8.1 mm